sensor_id;sensor_type;location;lat;lon;timestamp;P1;durP1;ratioP1;P2;durP2;ratioP2
5085;SDS011;4715;51.660;7.082;2022-08-01T00:01:55;9.07;;;8.30;;
5085;SDS011;4715;51.660;7.082;2022-08-01T00:04:18;9.10;;;8.20;;
5085;SDS011;4715;51.660;7.082;2022-08-01T00:06:40;7.80;;;7.20;;
5085;SDS011;4715;51.660;7.082;2022-08-01T00:09:02;9.03;;;8.17;;
5085;SDS011;4715;51.660;7.082;2022-08-01T00:11:24;8.50;;;7.80;;
5085;SDS011;4715;51.660;7.082;2022-08-01T00:13:46;11.27;;;9.07;;
5085;SDS011;4715;51.660;7.082;2022-08-01T00:16:08;9.43;;;8.50;;
5085;SDS011;4715;51.660;7.082;2022-08-01T00:18:31;7.80;;;7.07;;
5085;SDS011;4715;51.660;7.082;2022-08-01T00:20:54;11.23;;;7.73;;
5085;SDS011;4715;51.660;7.082;2022-08-01T00:23:16;8.27;;;7.60;;
5085;SDS011;4715;51.660;7.082;2022-08-01T00:25:38;8.77;;;7.20;;
5085;SDS011;4715;51.660;7.082;2022-08-01T00:28:00;10.10;;;8.07;;
5085;SDS011;4715;51.660;7.082;2022-08-01T00:30:21;8.60;;;6.33;;
5085;SDS011;4715;51.660;7.082;2022-08-01T00:32:44;8.20;;;7.50;;
5085;SDS011;4715;51.660;7.082;2022-08-01T00:35:06;7.10;;;6.60;;
5085;SDS011;4715;51.660;7.082;2022-08-01T00:37:30;9.83;;;8.73;;
5085;SDS011;4715;51.660;7.082;2022-08-01T00:39:51;8.80;;;8.00;;
5085;SDS011;4715;51.660;7.082;2022-08-01T00:42:13;7.07;;;6.57;;
5085;SDS011;4715;51.660;7.082;2022-08-01T00:44:35;9.10;;;8.30;;
5085;SDS011;4715;51.660;7.082;2022-08-01T00:46:58;7.63;;;6.93;;
5085;SDS011;4715;51.660;7.082;2022-08-01T00:49:19;11.67;;;7.50;;
5085;SDS011;4715;51.660;7.082;2022-08-01T00:51:41;7.87;;;7.07;;
5085;SDS011;4715;51.660;7.082;2022-08-01T00:54:05;7.13;;;6.57;;
5085;SDS011;4715;51.660;7.082;2022-08-01T00:56:27;8.80;;;8.00;;
5085;SDS011;4715;51.660;7.082;2022-08-01T00:58:49;8.90;;;8.00;;
5085;SDS011;4715;51.660;7.082;2022-08-01T01:01:11;10.23;;;8.13;;
5085;SDS011;4715;51.660;7.082;2022-08-01T01:03:33;9.90;;;8.40;;
5085;SDS011;4715;51.660;7.082;2022-08-01T01:05:57;8.80;;;7.90;;
5085;SDS011;4715;51.660;7.082;2022-08-01T01:08:30;8.50;;;7.70;;
5085;SDS011;4715;51.660;7.082;2022-08-01T01:11:01;9.63;;;7.60;;
5085;SDS011;4715;51.660;7.082;2022-08-01T01:13:31;9.20;;;8.30;;
5085;SDS011;4715;51.660;7.082;2022-08-01T01:15:58;8.80;;;8.10;;
5085;SDS011;4715;51.660;7.082;2022-08-01T01:18:24;9.67;;;8.67;;
5085;SDS011;4715;51.660;7.082;2022-08-01T01:20:52;9.80;;;8.33;;
5085;SDS011;4715;51.660;7.082;2022-08-01T01:23:28;8.60;;;7.90;;
5085;SDS011;4715;51.660;7.082;2022-08-01T01:26:15;8.77;;;7.90;;
5085;SDS011;4715;51.660;7.082;2022-08-01T01:29:00;9.07;;;8.20;;
5085;SDS011;4715;51.660;7.082;2022-08-01T01:31:26;7.60;;;6.90;;
5085;SDS011;4715;51.660;7.082;2022-08-01T01:33:50;8.33;;;7.70;;
5085;SDS011;4715;51.660;7.082;2022-08-01T01:36:14;10.40;;;9.40;;
5085;SDS011;4715;51.660;7.082;2022-08-01T01:38:40;8.57;;;7.80;;
5085;SDS011;4715;51.660;7.082;2022-08-01T01:41:05;7.27;;;6.77;;
5085;SDS011;4715;51.660;7.082;2022-08-01T01:43:28;8.83;;;7.17;;
5085;SDS011;4715;51.660;7.082;2022-08-01T01:45:52;7.70;;;7.00;;
5085;SDS011;4715;51.660;7.082;2022-08-01T01:48:16;10.40;;;8.20;;
5085;SDS011;4715;51.660;7.082;2022-08-01T01:50:40;7.60;;;7.00;;
5085;SDS011;4715;51.660;7.082;2022-08-01T01:53:03;7.80;;;7.20;;
5085;SDS011;4715;51.660;7.082;2022-08-01T01:55:26;7.93;;;7.33;;
5085;SDS011;4715;51.660;7.082;2022-08-01T01:57:50;8.83;;;8.03;;
5085;SDS011;4715;51.660;7.082;2022-08-01T02:00:13;7.50;;;6.80;;
5085;SDS011;4715;51.660;7.082;2022-08-01T02:02:38;7.20;;;6.70;;
5085;SDS011;4715;51.660;7.082;2022-08-01T02:05:00;8.77;;;6.80;;
5085;SDS011;4715;51.660;7.082;2022-08-01T02:07:24;6.27;;;5.77;;
5085;SDS011;4715;51.660;7.082;2022-08-01T02:09:47;8.40;;;7.60;;
5085;SDS011;4715;51.660;7.082;2022-08-01T02:12:10;6.97;;;6.27;;
5085;SDS011;4715;51.660;7.082;2022-08-01T02:14:33;6.10;;;5.57;;
5085;SDS011;4715;51.660;7.082;2022-08-01T02:16:56;6.87;;;6.23;;
5085;SDS011;4715;51.660;7.082;2022-08-01T02:19:20;5.57;;;5.17;;
5085;SDS011;4715;51.660;7.082;2022-08-01T02:21:44;6.83;;;6.23;;
5085;SDS011;4715;51.660;7.082;2022-08-01T02:24:10;8.00;;;7.30;;
5085;SDS011;4715;51.660;7.082;2022-08-01T02:26:35;6.83;;;6.20;;
5085;SDS011;4715;51.660;7.082;2022-08-01T02:29:06;6.57;;;5.90;;
5085;SDS011;4715;51.660;7.082;2022-08-01T02:31:32;8.13;;;6.67;;
5085;SDS011;4715;51.660;7.082;2022-08-01T02:33:57;8.43;;;5.83;;
5085;SDS011;4715;51.660;7.082;2022-08-01T02:36:24;7.27;;;6.67;;
5085;SDS011;4715;51.660;7.082;2022-08-01T02:38:48;6.20;;;5.70;;
5085;SDS011;4715;51.660;7.082;2022-08-01T02:41:11;6.70;;;6.10;;
5085;SDS011;4715;51.660;7.082;2022-08-01T02:43:37;8.73;;;7.83;;
5085;SDS011;4715;51.660;7.082;2022-08-01T02:46:03;8.43;;;7.63;;
5085;SDS011;4715;51.660;7.082;2022-08-01T02:48:28;7.33;;;6.73;;
5085;SDS011;4715;51.660;7.082;2022-08-01T02:50:55;6.07;;;5.57;;
5085;SDS011;4715;51.660;7.082;2022-08-01T02:53:21;7.93;;;5.70;;
5085;SDS011;4715;51.660;7.082;2022-08-01T02:55:46;8.90;;;8.10;;
5085;SDS011;4715;51.660;7.082;2022-08-01T02:58:09;6.47;;;5.97;;
5085;SDS011;4715;51.660;7.082;2022-08-01T03:00:33;5.13;;;4.83;;
5085;SDS011;4715;51.660;7.082;2022-08-01T03:02:56;5.90;;;5.50;;
5085;SDS011;4715;51.660;7.082;2022-08-01T03:05:20;6.40;;;5.90;;
5085;SDS011;4715;51.660;7.082;2022-08-01T03:07:43;5.57;;;5.17;;
5085;SDS011;4715;51.660;7.082;2022-08-01T03:10:07;5.93;;;5.20;;
5085;SDS011;4715;51.660;7.082;2022-08-01T03:12:32;4.80;;;4.43;;
5085;SDS011;4715;51.660;7.082;2022-08-01T03:14:55;5.37;;;4.97;;
5085;SDS011;4715;51.660;7.082;2022-08-01T03:17:20;6.33;;;5.73;;
5085;SDS011;4715;51.660;7.082;2022-08-01T03:19:43;7.43;;;6.90;;
5085;SDS011;4715;51.660;7.082;2022-08-01T03:22:08;6.70;;;6.10;;
5085;SDS011;4715;51.660;7.082;2022-08-01T03:24:32;6.27;;;5.60;;
5085;SDS011;4715;51.660;7.082;2022-08-01T03:26:57;7.20;;;6.50;;
5085;SDS011;4715;51.660;7.082;2022-08-01T03:29:21;5.20;;;4.70;;
5085;SDS011;4715;51.660;7.082;2022-08-01T03:31:46;5.23;;;4.73;;
5085;SDS011;4715;51.660;7.082;2022-08-01T03:34:09;4.57;;;4.17;;
5085;SDS011;4715;51.660;7.082;2022-08-01T03:36:32;4.80;;;4.50;;
5085;SDS011;4715;51.660;7.082;2022-08-01T03:38:57;5.70;;;5.30;;
5085;SDS011;4715;51.660;7.082;2022-08-01T03:41:22;5.80;;;5.30;;
5085;SDS011;4715;51.660;7.082;2022-08-01T03:43:50;4.87;;;4.47;;
5085;SDS011;4715;51.660;7.082;2022-08-01T03:46:26;5.10;;;4.70;;
5085;SDS011;4715;51.660;7.082;2022-08-01T03:48:54;5.17;;;4.77;;
5085;SDS011;4715;51.660;7.082;2022-08-01T03:51:20;4.80;;;4.40;;
5085;SDS011;4715;51.660;7.082;2022-08-01T03:53:43;6.03;;;5.53;;
5085;SDS011;4715;51.660;7.082;2022-08-01T03:56:08;6.33;;;5.73;;
5085;SDS011;4715;51.660;7.082;2022-08-01T03:58:32;5.13;;;4.83;;
5085;SDS011;4715;51.660;7.082;2022-08-01T04:00:57;6.03;;;5.57;;
5085;SDS011;4715;51.660;7.082;2022-08-01T04:03:20;7.00;;;6.33;;
5085;SDS011;4715;51.660;7.082;2022-08-01T04:05:42;6.50;;;6.03;;
5085;SDS011;4715;51.660;7.082;2022-08-01T04:08:04;5.77;;;5.27;;
5085;SDS011;4715;51.660;7.082;2022-08-01T04:10:26;5.43;;;5.07;;
5085;SDS011;4715;51.660;7.082;2022-08-01T04:12:50;4.97;;;4.60;;
5085;SDS011;4715;51.660;7.082;2022-08-01T04:15:16;4.77;;;4.37;;
5085;SDS011;4715;51.660;7.082;2022-08-01T04:17:41;4.83;;;4.50;;
5085;SDS011;4715;51.660;7.082;2022-08-01T04:20:03;5.17;;;4.70;;
5085;SDS011;4715;51.660;7.082;2022-08-01T04:22:26;4.07;;;3.80;;
5085;SDS011;4715;51.660;7.082;2022-08-01T04:24:48;4.90;;;4.50;;
5085;SDS011;4715;51.660;7.082;2022-08-01T04:27:14;4.83;;;4.40;;
5085;SDS011;4715;51.660;7.082;2022-08-01T04:29:40;3.80;;;3.60;;
5085;SDS011;4715;51.660;7.082;2022-08-01T04:32:04;4.30;;;4.00;;
5085;SDS011;4715;51.660;7.082;2022-08-01T04:34:30;4.30;;;4.00;;
5085;SDS011;4715;51.660;7.082;2022-08-01T04:36:54;5.80;;;5.30;;
5085;SDS011;4715;51.660;7.082;2022-08-01T04:39:17;3.83;;;3.53;;
5085;SDS011;4715;51.660;7.082;2022-08-01T04:41:41;4.70;;;4.23;;
5085;SDS011;4715;51.660;7.082;2022-08-01T04:44:04;4.40;;;4.10;;
5085;SDS011;4715;51.660;7.082;2022-08-01T04:46:27;4.80;;;4.50;;
5085;SDS011;4715;51.660;7.082;2022-08-01T04:48:50;3.97;;;3.67;;
5085;SDS011;4715;51.660;7.082;2022-08-01T04:51:14;3.67;;;3.47;;
5085;SDS011;4715;51.660;7.082;2022-08-01T04:53:37;4.60;;;3.77;;
5085;SDS011;4715;51.660;7.082;2022-08-01T04:55:59;3.70;;;3.40;;
5085;SDS011;4715;51.660;7.082;2022-08-01T04:58:21;4.37;;;4.07;;
5085;SDS011;4715;51.660;7.082;2022-08-01T05:00:43;4.07;;;3.67;;
5085;SDS011;4715;51.660;7.082;2022-08-01T05:03:04;3.50;;;3.30;;
5085;SDS011;4715;51.660;7.082;2022-08-01T05:05:26;4.97;;;4.57;;
5085;SDS011;4715;51.660;7.082;2022-08-01T05:07:50;4.40;;;4.10;;
5085;SDS011;4715;51.660;7.082;2022-08-01T05:10:12;5.57;;;5.10;;
5085;SDS011;4715;51.660;7.082;2022-08-01T05:12:34;5.10;;;4.70;;
5085;SDS011;4715;51.660;7.082;2022-08-01T05:14:56;5.47;;;4.97;;
5085;SDS011;4715;51.660;7.082;2022-08-01T05:17:18;4.90;;;4.50;;
5085;SDS011;4715;51.660;7.082;2022-08-01T05:19:40;5.23;;;4.83;;
5085;SDS011;4715;51.660;7.082;2022-08-01T05:22:03;5.20;;;4.80;;
5085;SDS011;4715;51.660;7.082;2022-08-01T05:24:27;5.20;;;4.53;;
5085;SDS011;4715;51.660;7.082;2022-08-01T05:26:49;4.90;;;4.60;;
5085;SDS011;4715;51.660;7.082;2022-08-01T05:29:11;4.80;;;4.50;;
5085;SDS011;4715;51.660;7.082;2022-08-01T05:31:33;4.77;;;3.77;;
5085;SDS011;4715;51.660;7.082;2022-08-01T05:33:55;4.83;;;4.43;;
5085;SDS011;4715;51.660;7.082;2022-08-01T05:36:17;5.70;;;5.20;;
5085;SDS011;4715;51.660;7.082;2022-08-01T05:38:39;5.47;;;4.30;;
5085;SDS011;4715;51.660;7.082;2022-08-01T05:41:05;4.90;;;4.50;;
5085;SDS011;4715;51.660;7.082;2022-08-01T05:43:27;4.90;;;4.50;;
5085;SDS011;4715;51.660;7.082;2022-08-01T05:45:48;5.47;;;4.97;;
5085;SDS011;4715;51.660;7.082;2022-08-01T05:48:11;4.40;;;4.00;;
5085;SDS011;4715;51.660;7.082;2022-08-01T05:50:33;4.80;;;4.40;;
5085;SDS011;4715;51.660;7.082;2022-08-01T05:52:56;4.10;;;3.90;;
5085;SDS011;4715;51.660;7.082;2022-08-01T05:55:18;5.40;;;4.80;;
5085;SDS011;4715;51.660;7.082;2022-08-01T05:57:41;5.40;;;5.00;;
5085;SDS011;4715;51.660;7.082;2022-08-01T06:00:04;6.13;;;5.40;;
5085;SDS011;4715;51.660;7.082;2022-08-01T06:02:27;5.50;;;5.00;;
5085;SDS011;4715;51.660;7.082;2022-08-01T06:04:49;4.97;;;4.57;;
5085;SDS011;4715;51.660;7.082;2022-08-01T06:07:11;4.53;;;4.13;;
5085;SDS011;4715;51.660;7.082;2022-08-01T06:09:33;5.70;;;5.30;;
5085;SDS011;4715;51.660;7.082;2022-08-01T06:11:55;5.43;;;5.00;;
5085;SDS011;4715;51.660;7.082;2022-08-01T06:14:19;6.57;;;5.70;;
5085;SDS011;4715;51.660;7.082;2022-08-01T06:16:40;6.13;;;5.53;;
5085;SDS011;4715;51.660;7.082;2022-08-01T06:19:02;5.50;;;5.00;;
5085;SDS011;4715;51.660;7.082;2022-08-01T06:21:24;4.57;;;4.17;;
5085;SDS011;4715;51.660;7.082;2022-08-01T06:23:46;6.00;;;5.50;;
5085;SDS011;4715;51.660;7.082;2022-08-01T06:26:08;6.13;;;5.43;;
5085;SDS011;4715;51.660;7.082;2022-08-01T06:28:30;5.27;;;4.80;;
5085;SDS011;4715;51.660;7.082;2022-08-01T06:30:53;5.37;;;4.87;;
5085;SDS011;4715;51.660;7.082;2022-08-01T06:33:15;4.23;;;3.93;;
5085;SDS011;4715;51.660;7.082;2022-08-01T06:35:37;5.53;;;5.07;;
5085;SDS011;4715;51.660;7.082;2022-08-01T06:37:59;5.63;;;5.10;;
5085;SDS011;4715;51.660;7.082;2022-08-01T06:40:21;5.90;;;5.40;;
5085;SDS011;4715;51.660;7.082;2022-08-01T06:42:43;6.17;;;5.30;;
5085;SDS011;4715;51.660;7.082;2022-08-01T06:45:06;5.80;;;5.40;;
5085;SDS011;4715;51.660;7.082;2022-08-01T06:47:32;4.50;;;4.20;;
5085;SDS011;4715;51.660;7.082;2022-08-01T06:49:54;4.57;;;4.27;;
5085;SDS011;4715;51.660;7.082;2022-08-01T06:52:15;4.00;;;3.70;;
5085;SDS011;4715;51.660;7.082;2022-08-01T06:54:39;4.13;;;3.93;;
5085;SDS011;4715;51.660;7.082;2022-08-01T06:57:04;3.80;;;3.50;;
5085;SDS011;4715;51.660;7.082;2022-08-01T06:59:26;4.60;;;3.93;;
5085;SDS011;4715;51.660;7.082;2022-08-01T07:01:48;4.13;;;3.83;;
5085;SDS011;4715;51.660;7.082;2022-08-01T07:04:12;4.23;;;3.83;;
5085;SDS011;4715;51.660;7.082;2022-08-01T07:06:34;3.47;;;3.27;;
5085;SDS011;4715;51.660;7.082;2022-08-01T07:08:56;3.70;;;3.40;;
5085;SDS011;4715;51.660;7.082;2022-08-01T07:11:19;3.53;;;3.33;;
5085;SDS011;4715;51.660;7.082;2022-08-01T07:13:41;3.20;;;3.00;;
5085;SDS011;4715;51.660;7.082;2022-08-01T07:16:05;3.70;;;3.50;;
5085;SDS011;4715;51.660;7.082;2022-08-01T07:18:27;3.17;;;2.97;;
5085;SDS011;4715;51.660;7.082;2022-08-01T07:20:50;3.60;;;3.40;;
5085;SDS011;4715;51.660;7.082;2022-08-01T07:23:12;2.80;;;2.57;;
5085;SDS011;4715;51.660;7.082;2022-08-01T07:25:34;3.37;;;3.17;;
5085;SDS011;4715;51.660;7.082;2022-08-01T07:27:58;3.40;;;3.20;;
5085;SDS011;4715;51.660;7.082;2022-08-01T07:30:21;2.80;;;2.60;;
5085;SDS011;4715;51.660;7.082;2022-08-01T07:32:43;3.20;;;3.00;;
5085;SDS011;4715;51.660;7.082;2022-08-01T07:35:05;2.40;;;2.20;;
5085;SDS011;4715;51.660;7.082;2022-08-01T07:37:30;2.93;;;2.73;;
5085;SDS011;4715;51.660;7.082;2022-08-01T07:39:52;3.53;;;3.23;;
5085;SDS011;4715;51.660;7.082;2022-08-01T07:42:14;4.43;;;4.07;;
5085;SDS011;4715;51.660;7.082;2022-08-01T07:44:36;3.80;;;3.50;;
5085;SDS011;4715;51.660;7.082;2022-08-01T07:46:58;4.67;;;4.27;;
5085;SDS011;4715;51.660;7.082;2022-08-01T07:49:19;4.17;;;3.50;;
5085;SDS011;4715;51.660;7.082;2022-08-01T07:51:42;4.60;;;4.20;;
5085;SDS011;4715;51.660;7.082;2022-08-01T07:54:05;5.60;;;5.10;;
5085;SDS011;4715;51.660;7.082;2022-08-01T07:56:27;4.43;;;3.93;;
5085;SDS011;4715;51.660;7.082;2022-08-01T07:58:49;4.17;;;3.87;;
5085;SDS011;4715;51.660;7.082;2022-08-01T08:01:11;4.20;;;3.90;;
5085;SDS011;4715;51.660;7.082;2022-08-01T08:03:33;4.17;;;3.80;;
5085;SDS011;4715;51.660;7.082;2022-08-01T08:05:55;7.00;;;3.40;;
5085;SDS011;4715;51.660;7.082;2022-08-01T08:08:17;3.50;;;3.23;;
5085;SDS011;4715;51.660;7.082;2022-08-01T08:10:41;4.73;;;4.07;;
5085;SDS011;4715;51.660;7.082;2022-08-01T08:13:03;3.50;;;3.30;;
5085;SDS011;4715;51.660;7.082;2022-08-01T08:15:25;2.90;;;2.70;;
5085;SDS011;4715;51.660;7.082;2022-08-01T08:17:47;3.47;;;3.17;;
5085;SDS011;4715;51.660;7.082;2022-08-01T08:20:09;3.37;;;3.17;;
5085;SDS011;4715;51.660;7.082;2022-08-01T08:22:32;3.47;;;3.27;;
5085;SDS011;4715;51.660;7.082;2022-08-01T08:24:54;3.23;;;3.03;;
5085;SDS011;4715;51.660;7.082;2022-08-01T08:27:18;3.50;;;3.30;;
5085;SDS011;4715;51.660;7.082;2022-08-01T08:29:39;3.33;;;3.10;;
5085;SDS011;4715;51.660;7.082;2022-08-01T08:32:02;2.93;;;2.73;;
5085;SDS011;4715;51.660;7.082;2022-08-01T08:34:24;2.13;;;1.93;;
5085;SDS011;4715;51.660;7.082;2022-08-01T08:36:47;2.20;;;2.00;;
5085;SDS011;4715;51.660;7.082;2022-08-01T08:39:10;2.00;;;1.90;;
5085;SDS011;4715;51.660;7.082;2022-08-01T08:41:32;2.13;;;2.03;;
5085;SDS011;4715;51.660;7.082;2022-08-01T08:43:56;1.70;;;1.60;;
5085;SDS011;4715;51.660;7.082;2022-08-01T08:46:19;1.70;;;1.60;;
5085;SDS011;4715;51.660;7.082;2022-08-01T08:48:42;3.97;;;2.20;;
5085;SDS011;4715;51.660;7.082;2022-08-01T08:51:04;2.20;;;2.10;;
5085;SDS011;4715;51.660;7.082;2022-08-01T08:53:28;2.23;;;2.13;;
5085;SDS011;4715;51.660;7.082;2022-08-01T08:55:52;2.20;;;2.00;;
5085;SDS011;4715;51.660;7.082;2022-08-01T08:58:16;1.83;;;1.73;;
5085;SDS011;4715;51.660;7.082;2022-08-01T09:00:41;1.97;;;1.70;;
5085;SDS011;4715;51.660;7.082;2022-08-01T09:03:04;1.83;;;1.73;;
5085;SDS011;4715;51.660;7.082;2022-08-01T09:05:26;1.70;;;1.60;;
5085;SDS011;4715;51.660;7.082;2022-08-01T09:07:48;1.83;;;1.73;;
5085;SDS011;4715;51.660;7.082;2022-08-01T09:10:10;1.70;;;1.60;;
5085;SDS011;4715;51.660;7.082;2022-08-01T09:12:32;1.87;;;1.77;;
5085;SDS011;4715;51.660;7.082;2022-08-01T09:14:56;1.70;;;1.60;;
5085;SDS011;4715;51.660;7.082;2022-08-01T09:17:21;2.43;;;2.33;;
5085;SDS011;4715;51.660;7.082;2022-08-01T09:19:45;1.60;;;1.50;;
5085;SDS011;4715;51.660;7.082;2022-08-01T09:22:09;1.50;;;1.40;;
5085;SDS011;4715;51.660;7.082;2022-08-01T09:24:33;1.23;;;1.23;;
5085;SDS011;4715;51.660;7.082;2022-08-01T09:26:56;1.53;;;1.43;;
5085;SDS011;4715;51.660;7.082;2022-08-01T09:29:19;1.70;;;1.60;;
5085;SDS011;4715;51.660;7.082;2022-08-01T09:31:43;2.07;;;1.73;;
5085;SDS011;4715;51.660;7.082;2022-08-01T09:34:08;1.70;;;1.60;;
5085;SDS011;4715;51.660;7.082;2022-08-01T09:36:42;1.37;;;1.33;;
5085;SDS011;4715;51.660;7.082;2022-08-01T09:39:11;1.43;;;1.33;;
5085;SDS011;4715;51.660;7.082;2022-08-01T09:41:36;1.40;;;1.30;;
5085;SDS011;4715;51.660;7.082;2022-08-01T09:43:58;1.87;;;1.77;;
5085;SDS011;4715;51.660;7.082;2022-08-01T09:46:20;1.23;;;1.23;;
5085;SDS011;4715;51.660;7.082;2022-08-01T09:48:54;1.20;;;1.20;;
5085;SDS011;4715;51.660;7.082;2022-08-01T09:51:28;1.80;;;0.90;;
5085;SDS011;4715;51.660;7.082;2022-08-01T09:55:31;0.90;;;0.90;;
5085;SDS011;4715;51.660;7.082;2022-08-01T09:57:11;0.73;;;0.73;;
5085;SDS011;4715;51.660;7.082;2022-08-01T09:59:35;0.83;;;0.83;;
5085;SDS011;4715;51.660;7.082;2022-08-01T10:02:00;0.90;;;0.90;;
5085;SDS011;4715;51.660;7.082;2022-08-01T10:04:22;0.80;;;0.80;;
5085;SDS011;4715;51.660;7.082;2022-08-01T10:06:47;0.70;;;0.70;;
5085;SDS011;4715;51.660;7.082;2022-08-01T10:09:13;0.70;;;0.70;;
5085;SDS011;4715;51.660;7.082;2022-08-01T10:11:38;0.90;;;0.90;;
5085;SDS011;4715;51.660;7.082;2022-08-01T10:14:02;0.70;;;0.70;;
5085;SDS011;4715;51.660;7.082;2022-08-01T10:16:26;0.80;;;0.80;;
5085;SDS011;4715;51.660;7.082;2022-08-01T10:18:49;0.63;;;0.63;;
5085;SDS011;4715;51.660;7.082;2022-08-01T10:21:13;0.67;;;0.67;;
5085;SDS011;4715;51.660;7.082;2022-08-01T10:23:37;0.60;;;0.60;;
5085;SDS011;4715;51.660;7.082;2022-08-01T10:26:00;1.23;;;0.80;;
5085;SDS011;4715;51.660;7.082;2022-08-01T10:28:23;0.60;;;0.60;;
5085;SDS011;4715;51.660;7.082;2022-08-01T10:30:46;0.63;;;0.63;;
5085;SDS011;4715;51.660;7.082;2022-08-01T10:33:10;0.60;;;0.60;;
5085;SDS011;4715;51.660;7.082;2022-08-01T10:35:33;0.60;;;0.60;;
5085;SDS011;4715;51.660;7.082;2022-08-01T10:37:56;0.77;;;0.77;;
5085;SDS011;4715;51.660;7.082;2022-08-01T10:40:20;0.80;;;0.80;;
5085;SDS011;4715;51.660;7.082;2022-08-01T10:42:44;0.70;;;0.70;;
5085;SDS011;4715;51.660;7.082;2022-08-01T10:45:07;0.90;;;0.90;;
5085;SDS011;4715;51.660;7.082;2022-08-01T10:47:32;0.93;;;0.60;;
5085;SDS011;4715;51.660;7.082;2022-08-01T10:50:02;0.90;;;0.70;;
5085;SDS011;4715;51.660;7.082;2022-08-01T10:52:28;0.73;;;0.73;;
5085;SDS011;4715;51.660;7.082;2022-08-01T10:54:58;0.80;;;0.80;;
5085;SDS011;4715;51.660;7.082;2022-08-01T10:57:24;0.73;;;0.73;;
5085;SDS011;4715;51.660;7.082;2022-08-01T11:00:02;0.70;;;0.70;;
5085;SDS011;4715;51.660;7.082;2022-08-01T11:02:25;0.70;;;0.70;;
5085;SDS011;4715;51.660;7.082;2022-08-01T11:04:50;0.80;;;0.80;;
5085;SDS011;4715;51.660;7.082;2022-08-01T11:07:16;0.60;;;0.60;;
5085;SDS011;4715;51.660;7.082;2022-08-01T11:09:42;0.70;;;0.70;;
5085;SDS011;4715;51.660;7.082;2022-08-01T11:12:06;0.60;;;0.60;;
5085;SDS011;4715;51.660;7.082;2022-08-01T11:14:31;0.70;;;0.70;;
5085;SDS011;4715;51.660;7.082;2022-08-01T11:16:54;0.70;;;0.70;;
5085;SDS011;4715;51.660;7.082;2022-08-01T11:19:17;1.17;;;0.83;;
5085;SDS011;4715;51.660;7.082;2022-08-01T11:27:20;0.63;;;0.63;;
5085;SDS011;4715;51.660;7.082;2022-08-01T11:29:44;0.80;;;0.70;;
5085;SDS011;4715;51.660;7.082;2022-08-01T11:32:50;0.80;;;0.80;;
5085;SDS011;4715;51.660;7.082;2022-08-01T11:35:17;0.73;;;0.73;;
5085;SDS011;4715;51.660;7.082;2022-08-01T11:37:40;0.80;;;0.80;;
5085;SDS011;4715;51.660;7.082;2022-08-01T11:40:15;0.80;;;0.80;;
5085;SDS011;4715;51.660;7.082;2022-08-01T11:42:38;0.80;;;0.80;;
5085;SDS011;4715;51.660;7.082;2022-08-01T11:45:03;1.00;;;0.70;;
5085;SDS011;4715;51.660;7.082;2022-08-01T11:47:42;0.70;;;0.70;;
5085;SDS011;4715;51.660;7.082;2022-08-01T11:50:05;0.70;;;0.70;;
5085;SDS011;4715;51.660;7.082;2022-08-01T11:52:48;0.73;;;0.73;;
5085;SDS011;4715;51.660;7.082;2022-08-01T11:55:20;0.90;;;0.90;;
5085;SDS011;4715;51.660;7.082;2022-08-01T11:57:42;0.93;;;0.93;;
5085;SDS011;4715;51.660;7.082;2022-08-01T12:00:10;0.80;;;0.80;;
5085;SDS011;4715;51.660;7.082;2022-08-01T12:02:33;0.90;;;0.90;;
5085;SDS011;4715;51.660;7.082;2022-08-01T12:04:56;0.87;;;0.83;;
5085;SDS011;4715;51.660;7.082;2022-08-01T12:07:20;1.03;;;0.80;;
5085;SDS011;4715;51.660;7.082;2022-08-01T12:09:42;0.70;;;0.70;;
5085;SDS011;4715;51.660;7.082;2022-08-01T12:12:06;1.23;;;0.90;;
5085;SDS011;4715;51.660;7.082;2022-08-01T12:14:30;0.90;;;0.90;;
5085;SDS011;4715;51.660;7.082;2022-08-01T12:16:53;0.87;;;0.87;;
5085;SDS011;4715;51.660;7.082;2022-08-01T12:19:18;0.90;;;0.90;;
5085;SDS011;4715;51.660;7.082;2022-08-01T12:21:40;0.90;;;0.90;;
5085;SDS011;4715;51.660;7.082;2022-08-01T12:24:02;0.70;;;0.70;;
5085;SDS011;4715;51.660;7.082;2022-08-01T12:26:37;0.73;;;0.73;;
5085;SDS011;4715;51.660;7.082;2022-08-01T12:29:00;1.10;;;1.00;;
5085;SDS011;4715;51.660;7.082;2022-08-01T12:31:30;1.00;;;1.00;;
5085;SDS011;4715;51.660;7.082;2022-08-01T12:33:54;0.80;;;0.80;;
5085;SDS011;4715;51.660;7.082;2022-08-01T12:36:26;0.97;;;0.97;;
5085;SDS011;4715;51.660;7.082;2022-08-01T12:38:51;1.40;;;1.40;;
5085;SDS011;4715;51.660;7.082;2022-08-01T12:41:14;0.87;;;0.87;;
5085;SDS011;4715;51.660;7.082;2022-08-01T12:43:36;1.00;;;1.00;;
5085;SDS011;4715;51.660;7.082;2022-08-01T12:46:01;1.63;;;1.10;;
5085;SDS011;4715;51.660;7.082;2022-08-01T12:48:23;1.40;;;1.20;;
5085;SDS011;4715;51.660;7.082;2022-08-01T12:50:48;1.10;;;0.90;;
5085;SDS011;4715;51.660;7.082;2022-08-01T12:53:12;0.80;;;0.80;;
5085;SDS011;4715;51.660;7.082;2022-08-01T12:55:43;0.87;;;0.87;;
5085;SDS011;4715;51.660;7.082;2022-08-01T12:58:08;0.90;;;0.90;;
5085;SDS011;4715;51.660;7.082;2022-08-01T13:00:33;0.93;;;0.93;;
5085;SDS011;4715;51.660;7.082;2022-08-01T13:03:00;1.10;;;0.97;;
5085;SDS011;4715;51.660;7.082;2022-08-01T13:05:24;1.20;;;1.10;;
5085;SDS011;4715;51.660;7.082;2022-08-01T13:07:49;0.80;;;0.80;;
5085;SDS011;4715;51.660;7.082;2022-08-01T13:10:14;0.90;;;0.90;;
5085;SDS011;4715;51.660;7.082;2022-08-01T13:12:50;1.00;;;1.00;;
5085;SDS011;4715;51.660;7.082;2022-08-01T13:15:25;1.10;;;1.00;;
5085;SDS011;4715;51.660;7.082;2022-08-01T13:17:52;0.90;;;0.90;;
5085;SDS011;4715;51.660;7.082;2022-08-01T13:20:30;0.80;;;0.80;;
5085;SDS011;4715;51.660;7.082;2022-08-01T13:22:55;0.90;;;0.90;;
5085;SDS011;4715;51.660;7.082;2022-08-01T13:25:32;1.80;;;1.10;;
5085;SDS011;4715;51.660;7.082;2022-08-01T13:30:35;1.10;;;1.10;;
5085;SDS011;4715;51.660;7.082;2022-08-01T13:32:58;1.10;;;1.10;;
5085;SDS011;4715;51.660;7.082;2022-08-01T13:35:20;1.53;;;1.43;;
5085;SDS011;4715;51.660;7.082;2022-08-01T13:37:42;3.20;;;1.30;;
5085;SDS011;4715;51.660;7.082;2022-08-01T13:40:07;3.70;;;1.20;;
5085;SDS011;4715;51.660;7.082;2022-08-01T13:42:30;1.27;;;1.17;;
5085;SDS011;4715;51.660;7.082;2022-08-01T13:44:52;1.03;;;1.03;;
5085;SDS011;4715;51.660;7.082;2022-08-01T13:47:13;1.20;;;1.10;;
5085;SDS011;4715;51.660;7.082;2022-08-01T13:49:35;1.00;;;1.00;;
5085;SDS011;4715;51.660;7.082;2022-08-01T13:51:57;1.13;;;1.13;;
5085;SDS011;4715;51.660;7.082;2022-08-01T13:54:19;1.23;;;1.23;;
5085;SDS011;4715;51.660;7.082;2022-08-01T13:56:46;1.23;;;1.20;;
5085;SDS011;4715;51.660;7.082;2022-08-01T13:59:08;1.20;;;1.20;;
5085;SDS011;4715;51.660;7.082;2022-08-01T14:01:30;1.30;;;1.20;;
5085;SDS011;4715;51.660;7.082;2022-08-01T14:03:52;1.10;;;1.10;;
5085;SDS011;4715;51.660;7.082;2022-08-01T14:06:14;1.93;;;1.20;;
5085;SDS011;4715;51.660;7.082;2022-08-01T14:08:37;1.13;;;1.03;;
5085;SDS011;4715;51.660;7.082;2022-08-01T14:11:00;1.40;;;1.30;;
5085;SDS011;4715;51.660;7.082;2022-08-01T14:13:24;1.47;;;1.10;;
5085;SDS011;4715;51.660;7.082;2022-08-01T14:15:46;1.27;;;1.17;;
5085;SDS011;4715;51.660;7.082;2022-08-01T14:18:10;2.13;;;1.67;;
5085;SDS011;4715;51.660;7.082;2022-08-01T14:20:34;1.93;;;1.70;;
5085;SDS011;4715;51.660;7.082;2022-08-01T14:22:59;1.10;;;1.10;;
5085;SDS011;4715;51.660;7.082;2022-08-01T14:25:21;1.10;;;1.10;;
5085;SDS011;4715;51.660;7.082;2022-08-01T14:27:45;1.20;;;1.10;;
5085;SDS011;4715;51.660;7.082;2022-08-01T14:30:10;2.77;;;2.33;;
5085;SDS011;4715;51.660;7.082;2022-08-01T14:32:33;1.87;;;1.30;;
5085;SDS011;4715;51.660;7.082;2022-08-01T14:38:08;1.20;;;1.20;;
5085;SDS011;4715;51.660;7.082;2022-08-01T14:40:30;1.23;;;1.20;;
5085;SDS011;4715;51.660;7.082;2022-08-01T14:42:52;1.00;;;1.00;;
5085;SDS011;4715;51.660;7.082;2022-08-01T14:45:15;1.17;;;1.17;;
5085;SDS011;4715;51.660;7.082;2022-08-01T14:47:38;0.90;;;0.90;;
5085;SDS011;4715;51.660;7.082;2022-08-01T14:50:02;1.40;;;1.30;;
5085;SDS011;4715;51.660;7.082;2022-08-01T14:52:26;1.10;;;1.10;;
5085;SDS011;4715;51.660;7.082;2022-08-01T14:54:48;1.77;;;1.40;;
5085;SDS011;4715;51.660;7.082;2022-08-01T14:57:10;1.23;;;1.13;;
5085;SDS011;4715;51.660;7.082;2022-08-01T14:59:32;1.47;;;1.17;;
5085;SDS011;4715;51.660;7.082;2022-08-01T15:01:56;2.40;;;1.20;;
5085;SDS011;4715;51.660;7.082;2022-08-01T15:04:20;1.37;;;1.27;;
5085;SDS011;4715;51.660;7.082;2022-08-01T15:06:42;1.10;;;1.10;;
5085;SDS011;4715;51.660;7.082;2022-08-01T15:09:04;1.43;;;1.40;;